createdAt,value
2023-05-05T00:00:03.146Z,792.21
2023-05-05T00:01:02.597Z,839.11
2023-05-05T00:02:02.634Z,886.75
2023-05-05T00:03:02.655Z,768.81
2023-05-05T00:04:02.626Z,680.66
2023-05-05T00:05:02.605Z,697.82
2023-05-05T00:06:02.630Z,670.69
2023-05-05T00:07:02.611Z,687.54
2023-05-05T00:08:02.611Z,675.17
2023-05-05T00:09:02.606Z,623.25
2023-05-05T00:10:02.623Z,637.88
2023-05-05T00:11:02.626Z,586.88
2023-05-05T00:12:02.615Z,602.00
2023-05-05T00:13:02.657Z,557.86
2023-05-05T00:14:02.618Z,517.03
2023-05-05T00:15:02.597Z,558.56
2023-05-05T00:16:02.601Z,520.84
2023-05-05T00:17:02.610Z,460.18
2023-05-05T00:18:02.649Z,431.63
2023-05-05T00:19:02.636Z,408.86
2023-05-05T00:20:02.590Z,423.99
2023-05-05T00:21:02.595Z,444.00
2023-05-05T00:22:02.583Z,491.64
2023-05-05T00:23:02.588Z,553.53
2023-05-05T00:24:02.589Z,591.12
2023-05-05T00:25:02.585Z,614.82
2023-05-05T00:26:02.625Z,612.93
2023-05-05T00:27:02.633Z,641.26
2023-05-05T00:28:02.664Z,622.34
2023-05-05T00:29:02.708Z,656.64
2023-05-05T00:30:02.732Z,675.69
2023-05-05T00:31:02.768Z,670.20
2023-05-05T00:32:02.787Z,702.49
2023-05-05T00:33:02.977Z,718.08
2023-05-05T00:34:02.793Z,700.86
2023-05-05T00:35:02.780Z,611.84
2023-05-05T00:36:02.778Z,595.25
2023-05-05T00:37:02.762Z,631.80
2023-05-05T00:38:02.806Z,615.21
2023-05-05T00:39:02.772Z,694.77
2023-05-05T00:40:02.778Z,771.80
2023-05-05T00:41:02.793Z,810.20
2023-05-05T00:42:02.821Z,787.27
2023-05-05T00:43:02.932Z,768.71
2023-05-05T00:44:02.985Z,713.02
2023-05-05T00:45:02.939Z,668.85
2023-05-05T00:46:03.047Z,564.83
2023-05-05T00:47:03.004Z,548.34
2023-05-05T00:48:03.074Z,545.85
2023-05-05T00:49:03.122Z,565.10
2023-05-05T00:50:03.109Z,565.83
2023-05-05T00:51:03.138Z,603.32
2023-05-05T00:52:03.153Z,617.80
2023-05-05T00:53:03.193Z,679.88
2023-05-05T00:54:03.215Z,706.34
2023-05-05T00:55:03.274Z,646.19
2023-05-05T00:56:03.300Z,622.58
2023-05-05T00:57:03.329Z,622.48
2023-05-05T00:58:03.364Z,692.61
2023-05-05T00:59:03.402Z,746.80
2023-05-05T01:00:03.450Z,728.82
2023-05-05T01:01:03.494Z,721.32
2023-05-05T01:02:03.574Z,694.80
2023-05-05T01:03:03.739Z,655.62
2023-05-05T01:04:03.778Z,697.08
2023-05-05T01:05:03.727Z,632.98
2023-05-05T01:06:03.788Z,569.36
2023-05-05T01:07:03.884Z,393.61
2023-05-05T01:08:03.903Z,320.69
2023-05-05T01:09:03.955Z,250.05
2023-05-05T01:10:18.216Z,183.06
2023-05-05T01:11:04.969Z,154.58
2023-05-05T01:12:03.943Z,139.53
2023-05-05T01:13:04.030Z,116.99
2023-05-05T01:14:03.925Z,93.08
2023-05-05T01:15:03.919Z,82.82
2023-05-05T01:16:03.927Z,79.56
2023-05-05T01:17:03.893Z,81.90
2023-05-05T01:18:03.944Z,86.95
2023-05-05T01:19:03.882Z,88.12
2023-05-05T01:20:03.871Z,101.67
2023-05-05T01:21:03.833Z,113.07
2023-05-05T01:22:03.833Z,134.67
2023-05-05T01:23:03.825Z,148.93
2023-05-05T01:24:03.812Z,172.65
2023-05-05T01:25:03.816Z,205.99
2023-05-05T01:26:03.858Z,225.10
2023-05-05T01:27:03.891Z,245.14
2023-05-05T01:28:03.944Z,252.74
2023-05-05T01:29:04.017Z,263.04
2023-05-05T01:30:04.056Z,240.89
2023-05-05T01:31:04.075Z,268.38
2023-05-05T01:32:04.178Z,328.53
2023-05-05T01:33:04.147Z,325.41
2023-05-05T01:34:04.180Z,397.75
2023-05-05T01:35:04.224Z,398.34
2023-05-05T01:36:04.214Z,478.74
2023-05-05T01:37:04.224Z,623.99
2023-05-05T01:38:04.249Z,606.85
2023-05-05T01:39:04.270Z,523.52
2023-05-05T01:40:04.359Z,512.79
2023-05-05T01:41:04.310Z,469.43
2023-05-05T01:42:04.339Z,465.68
2023-05-05T01:43:04.382Z,463.31
2023-05-05T01:44:04.405Z,472.94
2023-05-05T01:45:04.436Z,502.76
2023-05-05T01:46:04.516Z,600.22
2023-05-05T01:47:04.515Z,632.57
2023-05-05T01:48:04.593Z,612.39
2023-05-05T01:49:04.599Z,616.88
2023-05-05T01:50:04.645Z,563.31
2023-05-05T01:51:04.664Z,577.02
2023-05-05T01:52:04.691Z,548.44
2023-05-05T01:53:04.730Z,588.77
2023-05-05T01:54:04.765Z,582.28
2023-05-05T01:55:04.809Z,599.75
2023-05-05T01:56:04.872Z,578.42
2023-05-05T01:57:04.935Z,556.63
2023-05-05T01:58:05.022Z,506.45
2023-05-05T01:59:05.052Z,471.75
2023-05-05T02:00:05.148Z,411.63
2023-05-05T02:01:05.166Z,393.89
2023-05-05T02:02:05.254Z,423.33
2023-05-05T02:03:05.305Z,396.41
2023-05-05T02:04:05.322Z,345.95
2023-05-05T02:05:05.374Z,291.03
2023-05-05T02:06:05.433Z,238.84
2023-05-05T02:07:05.476Z,223.59
2023-05-05T02:08:05.526Z,237.08
2023-05-05T02:09:05.558Z,253.41
2023-05-05T02:10:05.686Z,279.47
2023-05-05T02:11:05.620Z,255.89
2023-05-05T02:12:05.665Z,225.45
2023-05-05T02:13:05.790Z,220.35
2023-05-05T02:14:05.710Z,236.07
2023-05-05T02:15:05.751Z,260.20
2023-05-05T02:16:05.822Z,274.74
2023-05-05T02:17:05.768Z,351.37
2023-05-05T02:18:05.868Z,418.63
2023-05-05T02:19:05.822Z,394.24
2023-05-05T02:20:05.933Z,413.04
2023-05-05T02:21:05.882Z,374.87
2023-05-05T02:22:05.907Z,369.73
2023-05-05T02:23:05.983Z,376.89
2023-05-05T02:24:06.020Z,312.96
2023-05-05T02:25:05.992Z,255.65
2023-05-05T02:26:06.046Z,207.12
2023-05-05T02:27:06.067Z,163.47
2023-05-05T02:28:06.084Z,151.72
2023-05-05T02:29:06.126Z,130.28
2023-05-05T02:30:06.418Z,117.54
2023-05-05T02:31:06.237Z,112.34
2023-05-05T02:32:06.246Z,104.32
2023-05-05T02:33:06.369Z,114.67
2023-05-05T02:34:06.319Z,121.63
2023-05-05T02:35:06.367Z,131.24
2023-05-05T02:36:06.398Z,143.97
2023-05-05T02:37:06.448Z,158.03
2023-05-05T02:38:06.464Z,165.75
2023-05-05T02:39:06.517Z,172.57
2023-05-05T02:40:06.799Z,176.43
2023-05-05T02:41:06.552Z,189.11
2023-05-05T02:42:06.620Z,256.36
2023-05-05T02:43:06.780Z,296.23
2023-05-05T02:44:06.724Z,341.97
2023-05-05T02:45:06.871Z,347.69
2023-05-05T02:46:06.839Z,332.26
2023-05-05T02:47:07.697Z,328.72
2023-05-05T02:48:06.941Z,316.61
2023-05-05T02:49:06.931Z,280.00
2023-05-05T02:50:07.178Z,233.84
2023-05-05T02:51:06.994Z,209.06
2023-05-05T02:52:07.015Z,182.45
2023-05-05T02:53:07.046Z,200.25
2023-05-05T02:54:07.049Z,224.81
2023-05-05T02:55:07.085Z,226.08
2023-05-05T02:56:07.101Z,172.04
2023-05-05T02:57:07.131Z,151.83
2023-05-05T02:58:07.165Z,162.38
2023-05-05T02:59:07.184Z,185.35
2023-05-05T03:00:07.329Z,221.49
2023-05-05T03:01:07.323Z,237.50
2023-05-05T03:02:07.288Z,286.80
2023-05-05T03:03:07.393Z,321.18
2023-05-05T03:04:07.397Z,375.32
2023-05-05T03:05:07.450Z,445.74
2023-05-05T03:06:07.494Z,464.90
2023-05-05T03:07:07.525Z,479.96
2023-05-05T03:08:07.566Z,462.49
2023-05-05T03:09:07.585Z,427.67
2023-05-05T03:10:08.024Z,438.32
2023-05-05T03:11:07.698Z,416.08
2023-05-05T03:12:07.733Z,436.46
2023-05-05T03:13:07.910Z,491.08
2023-05-05T03:14:07.823Z,506.32
2023-05-05T03:15:07.879Z,584.38
2023-05-05T03:16:07.924Z,615.36
2023-05-05T03:17:07.964Z,572.27
2023-05-05T03:18:08.023Z,576.81
2023-05-05T03:19:08.079Z,601.66
2023-05-05T03:20:08.329Z,603.44
2023-05-05T03:21:08.238Z,604.17
2023-05-05T03:22:08.302Z,633.70
2023-05-05T03:23:08.379Z,705.23
2023-05-05T03:24:08.448Z,724.98
2023-05-05T03:25:08.531Z,812.35
2023-05-05T03:26:08.587Z,807.60
2023-05-05T03:27:08.657Z,808.75
2023-05-05T03:28:08.696Z,853.84
2023-05-05T03:29:08.756Z,871.05
2023-05-05T03:30:08.990Z,868.88
2023-05-05T03:31:08.890Z,818.38
2023-05-05T03:32:08.998Z,659.16
2023-05-05T03:33:09.188Z,584.14
2023-05-05T03:34:09.106Z,474.17
2023-05-05T03:35:09.162Z,402.32
2023-05-05T03:36:09.231Z,342.89
2023-05-05T03:37:09.309Z,270.54
2023-05-05T03:38:09.355Z,217.68
2023-05-05T03:39:09.491Z,236.15
2023-05-05T03:40:09.631Z,225.79
2023-05-05T03:41:09.547Z,218.72
2023-05-05T03:42:09.608Z,259.96
2023-05-05T03:43:09.676Z,324.13
2023-05-05T03:44:09.724Z,364.60
2023-05-05T03:45:09.788Z,374.82
2023-05-05T03:46:09.946Z,446.92
2023-05-05T03:47:09.912Z,547.43
2023-05-05T03:48:10.031Z,514.99
2023-05-05T03:49:10.042Z,485.52
2023-05-05T03:50:10.200Z,428.66
2023-05-05T03:51:10.097Z,385.60
2023-05-05T03:52:10.137Z,418.57
2023-05-05T03:53:10.188Z,427.48
2023-05-05T03:54:10.258Z,555.16
2023-05-05T03:55:10.326Z,709.71
2023-05-05T03:56:10.393Z,613.90
2023-05-05T03:57:10.452Z,605.65
2023-05-05T03:58:10.508Z,636.96
2023-05-05T03:59:10.617Z,620.09
2023-05-05T04:00:10.616Z,528.85
2023-05-05T04:01:10.666Z,502.19
2023-05-05T04:02:10.752Z,509.64
2023-05-05T04:03:11.053Z,493.47
2023-05-05T04:04:10.913Z,494.58
2023-05-05T04:05:10.907Z,434.88
2023-05-05T04:06:10.986Z,411.37
2023-05-05T04:07:11.035Z,405.11
2023-05-05T04:08:11.113Z,326.00
2023-05-05T04:09:11.174Z,329.31
2023-05-05T04:10:11.231Z,364.20
2023-05-05T04:11:11.303Z,385.64
2023-05-05T04:12:11.347Z,335.18
2023-05-05T04:13:11.473Z,265.20
2023-05-05T04:14:11.453Z,250.80
2023-05-05T04:15:11.524Z,244.63
2023-05-05T04:16:11.589Z,265.53
2023-05-05T04:17:11.632Z,274.37
2023-05-05T04:18:11.703Z,298.93
2023-05-05T04:19:11.762Z,305.07
2023-05-05T04:20:11.855Z,317.68
2023-05-05T04:21:11.908Z,370.14
2023-05-05T04:22:11.967Z,426.38
2023-05-05T04:23:12.048Z,446.54
2023-05-05T04:24:12.112Z,480.94
2023-05-05T04:25:12.182Z,531.46
2023-05-05T04:26:12.261Z,489.45
2023-05-05T04:27:12.336Z,474.39
2023-05-05T04:28:12.431Z,473.54
2023-05-05T04:29:12.479Z,451.24
2023-05-05T04:30:12.544Z,445.80
2023-05-05T04:31:12.645Z,466.82
2023-05-05T04:32:12.680Z,440.26
2023-05-05T04:33:12.738Z,409.22
2023-05-05T04:34:12.780Z,344.12
2023-05-05T04:35:12.875Z,297.80
2023-05-05T04:36:12.919Z,258.98
2023-05-05T04:37:12.988Z,288.00
2023-05-05T04:38:13.062Z,282.16
2023-05-05T04:39:13.100Z,220.32
2023-05-05T04:40:13.111Z,174.98
2023-05-05T04:41:13.132Z,147.17
2023-05-05T04:42:13.152Z,142.91
2023-05-05T04:43:13.175Z,125.97
2023-05-05T04:44:13.245Z,118.83
2023-05-05T04:45:13.317Z,130.33
2023-05-05T04:46:13.371Z,129.26
2023-05-05T04:47:14.763Z,140.52
2023-05-05T04:48:13.504Z,157.62
2023-05-05T04:49:13.560Z,147.49
2023-05-05T04:50:13.631Z,135.93
2023-05-05T04:51:13.686Z,146.96
2023-05-05T04:52:13.740Z,159.70
2023-05-05T04:53:13.807Z,152.43
2023-05-05T04:54:13.853Z,122.52
2023-05-05T04:55:14.724Z,89.59
2023-05-05T04:56:13.978Z,72.02
2023-05-05T04:57:14.045Z,55.61
2023-05-05T04:58:14.110Z,49.29
2023-05-05T04:59:14.170Z,46.87
2023-05-05T05:00:14.218Z,47.48
2023-05-05T05:01:14.261Z,50.10
2023-05-05T05:02:14.386Z,61.91
2023-05-05T05:03:14.454Z,225.89
2023-05-05T05:04:14.417Z,710.70
2023-05-05T05:05:14.490Z,1000.00
2023-05-05T05:06:14.557Z,1000.00
2023-05-05T05:07:14.599Z,1000.00
2023-05-05T05:08:14.662Z,1000.00
2023-05-05T05:09:14.739Z,1000.00
2023-05-05T05:10:14.816Z,1000.00
2023-05-05T05:11:14.904Z,1000.00
2023-05-05T05:12:14.983Z,1000.00
2023-05-05T05:13:15.120Z,1000.00
2023-05-05T05:14:15.176Z,1000.00
2023-05-05T05:15:15.229Z,1000.00
2023-05-05T05:16:15.373Z,1000.00
2023-05-05T05:17:15.363Z,1000.00
2023-05-05T05:18:15.420Z,1000.00
2023-05-05T05:19:15.521Z,1000.00
2023-05-05T05:20:15.582Z,1000.00
2023-05-05T05:21:15.673Z,1000.00
2023-05-05T05:22:15.712Z,1000.00
2023-05-05T05:23:15.752Z,1000.00
2023-05-05T05:24:15.782Z,1000.00
2023-05-05T05:25:15.833Z,1000.00
2023-05-05T05:26:15.837Z,1000.00
2023-05-05T05:27:15.863Z,944.00
2023-05-05T05:28:15.879Z,904.34
2023-05-05T05:29:15.928Z,1000.00
2023-05-05T05:30:15.999Z,1000.00
2023-05-05T05:31:16.048Z,1000.00
2023-05-05T05:32:16.162Z,949.93
2023-05-05T05:33:16.149Z,855.42
2023-05-05T05:34:16.212Z,537.89
2023-05-05T05:35:17.160Z,300.39
2023-05-05T05:36:16.802Z,155.24
2023-05-05T05:37:16.430Z,117.71
2023-05-05T05:38:16.530Z,122.19
2023-05-05T05:39:16.498Z,137.05
2023-05-05T05:40:16.540Z,116.10
2023-05-05T05:41:16.568Z,114.51
2023-05-05T05:42:16.653Z,199.64
2023-05-05T05:43:16.701Z,211.80
2023-05-05T05:44:16.767Z,166.02
2023-05-05T05:45:16.820Z,115.45
2023-05-05T05:46:16.883Z,100.29
2023-05-05T05:47:16.957Z,88.69
2023-05-05T05:48:16.979Z,71.31
2023-05-05T05:49:17.035Z,61.48
2023-05-05T05:50:17.094Z,53.99
2023-05-05T05:51:17.164Z,51.65
2023-05-05T05:52:17.221Z,50.28
2023-05-05T05:53:17.291Z,49.58
2023-05-05T05:54:17.327Z,60.10
2023-05-05T05:55:17.392Z,79.71
2023-05-05T05:56:17.442Z,90.74
2023-05-05T05:57:17.514Z,85.56
2023-05-05T05:58:17.567Z,76.08
2023-05-05T05:59:17.611Z,66.17
2023-05-05T06:00:17.642Z,65.38
2023-05-05T06:01:17.671Z,63.91
2023-05-05T06:02:17.720Z,44.87
2023-05-05T06:03:17.851Z,33.57
2023-05-05T06:04:17.726Z,32.25
2023-05-05T06:05:17.743Z,63.57
2023-05-05T06:06:17.794Z,98.35
2023-05-05T06:07:17.829Z,64.05
2023-05-05T06:08:17.889Z,42.31
2023-05-05T06:09:17.903Z,35.59
2023-05-05T06:10:27.257Z,30.80
2023-05-05T06:11:18.949Z,30.81
2023-05-05T06:12:18.765Z,29.02
2023-05-05T06:13:18.776Z,31.65
2023-05-05T06:14:18.251Z,32.47
2023-05-05T06:15:17.903Z,37.88
2023-05-05T06:16:17.917Z,37.49
2023-05-05T06:17:17.886Z,30.99
2023-05-05T06:18:18.018Z,30.73
2023-05-05T06:19:17.903Z,29.08
2023-05-05T06:20:17.893Z,25.49
2023-05-05T06:21:17.859Z,27.10
2023-05-05T06:22:17.863Z,22.83
2023-05-05T06:23:17.935Z,22.73
2023-05-05T06:24:18.009Z,20.15
2023-05-05T06:25:18.045Z,19.60
2023-05-05T06:26:18.112Z,20.70
2023-05-05T06:27:18.173Z,22.47
2023-05-05T06:28:18.200Z,26.03
2023-05-05T06:29:18.242Z,32.06
2023-05-05T06:30:18.309Z,31.45
2023-05-05T06:31:18.390Z,24.86
2023-05-05T06:32:18.385Z,23.72
2023-05-05T06:33:18.410Z,21.83
2023-05-05T06:34:18.483Z,19.90
2023-05-05T06:35:18.542Z,19.31
2023-05-05T06:36:18.647Z,19.03
2023-05-05T06:37:18.679Z,18.24
2023-05-05T06:38:18.733Z,19.32
2023-05-05T06:39:19.761Z,17.26
2023-05-05T06:40:18.809Z,15.89
2023-05-05T06:41:18.809Z,16.76
2023-05-05T06:42:18.859Z,16.40
2023-05-05T06:43:18.909Z,16.18
2023-05-05T06:44:18.970Z,13.48
2023-05-05T06:45:19.032Z,11.69
2023-05-05T06:46:19.167Z,10.41
2023-05-05T06:47:19.180Z,11.84
2023-05-05T06:48:19.207Z,12.72
2023-05-05T06:49:19.244Z,13.14
2023-05-05T06:50:19.305Z,12.25
2023-05-05T06:51:19.268Z,10.23
2023-05-05T06:52:19.293Z,9.07
2023-05-05T06:53:19.319Z,8.46
2023-05-05T06:54:19.352Z,7.98
2023-05-05T06:55:19.456Z,8.00
2023-05-05T06:56:19.443Z,7.72
2023-05-05T06:57:19.549Z,7.77
2023-05-05T06:58:19.560Z,7.68
2023-05-05T06:59:19.572Z,8.12
2023-05-05T07:00:19.597Z,9.63
2023-05-05T07:01:19.699Z,11.28
2023-05-05T07:02:19.653Z,10.48
2023-05-05T07:03:19.760Z,10.33
2023-05-05T07:04:19.684Z,11.15
2023-05-05T07:05:19.655Z,10.31
2023-05-05T07:06:19.633Z,9.72
2023-05-05T07:07:19.629Z,8.77
2023-05-05T07:08:19.625Z,7.60
2023-05-05T07:09:19.603Z,6.97
2023-05-05T07:10:19.617Z,6.24
2023-05-05T07:11:19.873Z,5.81
2023-05-05T07:12:19.644Z,5.27
2023-05-05T07:13:19.734Z,5.36
2023-05-05T07:14:20.960Z,5.12
2023-05-05T07:15:28.509Z,5.46
2023-05-05T07:16:20.603Z,5.05
2023-05-05T07:17:19.532Z,3.72
2023-05-05T07:18:19.551Z,3.47
2023-05-05T07:19:19.473Z,3.68
2023-05-05T07:20:19.437Z,3.65
2023-05-05T07:21:19.401Z,3.06
2023-05-05T07:22:19.372Z,2.39
2023-05-05T07:23:19.324Z,2.49
2023-05-05T07:24:20.310Z,2.86
2023-05-05T07:25:19.273Z,2.55
2023-05-05T07:26:19.257Z,2.36
2023-05-05T07:27:19.328Z,2.32
2023-05-05T07:28:19.300Z,2.50
2023-05-05T07:29:19.327Z,2.61
2023-05-05T07:30:19.869Z,2.57
2023-05-05T07:31:19.340Z,2.77
2023-05-05T07:32:19.442Z,2.49
2023-05-05T07:33:19.261Z,2.43
2023-05-05T07:34:19.240Z,2.35
2023-05-05T07:35:19.197Z,2.83
2023-05-05T07:36:19.150Z,2.75
2023-05-05T07:37:19.110Z,2.25
2023-05-05T07:38:19.077Z,2.33
2023-05-05T07:39:19.017Z,2.36
2023-05-05T07:40:18.970Z,2.15
2023-05-05T07:41:18.981Z,2.10
2023-05-05T07:42:18.945Z,1.99
2023-05-05T07:43:19.070Z,2.01
2023-05-05T07:44:18.907Z,1.81
2023-05-05T07:45:18.899Z,1.71
2023-05-05T07:46:18.923Z,1.77
2023-05-05T07:47:18.920Z,1.83
2023-05-05T07:48:18.887Z,1.78
2023-05-05T07:49:18.866Z,1.91
2023-05-05T07:50:18.836Z,1.90
2023-05-05T07:51:18.816Z,1.72
2023-05-05T07:52:19.469Z,1.50
2023-05-05T07:53:18.716Z,1.69
2023-05-05T07:54:18.633Z,2.00
2023-05-05T07:55:18.546Z,2.03
2023-05-05T07:56:19.336Z,2.38
2023-05-05T07:57:18.615Z,2.41
2023-05-05T07:58:18.566Z,2.40
2023-05-05T07:59:18.665Z,1.70
2023-05-05T08:00:18.457Z,1.38
2023-05-05T08:01:18.542Z,1.46
2023-05-05T08:02:18.685Z,1.66
2023-05-05T08:03:18.812Z,1.79
2023-05-05T08:04:18.851Z,1.64
2023-05-05T08:05:18.920Z,1.67
2023-05-05T08:06:19.027Z,2.31
2023-05-05T08:07:19.149Z,4.08
2023-05-05T08:08:19.241Z,7.04
2023-05-05T08:09:19.366Z,8.45
2023-05-05T08:10:19.414Z,10.61
2023-05-05T08:11:19.512Z,13.58
2023-05-05T08:12:19.603Z,23.76
2023-05-05T08:13:19.781Z,10.67
2023-05-05T08:14:19.836Z,7.81
2023-05-05T08:15:20.039Z,7.93
2023-05-05T08:16:20.883Z,8.90
2023-05-05T08:17:20.038Z,7.47
2023-05-05T08:18:20.008Z,9.02
2023-05-05T08:19:28.906Z,11.19
2023-05-05T08:20:20.843Z,11.21
2023-05-05T08:21:19.737Z,8.87
2023-05-05T08:22:19.628Z,6.18
2023-05-05T08:23:19.552Z,6.04
2023-05-05T08:24:19.436Z,5.39
2023-05-05T08:25:19.334Z,6.30
2023-05-05T08:26:19.221Z,9.36
2023-05-05T08:27:19.136Z,9.23
2023-05-05T08:28:19.158Z,5.00
2023-05-05T08:29:19.272Z,6.12
2023-05-05T08:30:19.374Z,4.33
2023-05-05T08:31:19.570Z,3.30
2023-05-05T08:32:19.547Z,3.03
2023-05-05T08:33:19.668Z,3.50
2023-05-05T08:34:19.735Z,5.58
2023-05-05T08:35:19.837Z,10.58
2023-05-05T08:36:20.022Z,9.78
2023-05-05T08:37:20.030Z,5.88
2023-05-05T08:38:20.314Z,4.00
2023-05-05T08:39:20.221Z,3.50
2023-05-05T08:40:20.315Z,3.40
2023-05-05T08:41:20.258Z,4.08
2023-05-05T08:42:35.577Z,4.80
2023-05-05T08:43:21.084Z,4.84
2023-05-05T08:44:19.973Z,4.89
2023-05-05T08:45:19.884Z,2.95
2023-05-05T08:46:19.790Z,1.57
2023-05-05T08:47:20.346Z,1.56
2023-05-05T08:48:19.585Z,2.90
2023-05-05T08:49:19.483Z,3.80
2023-05-05T08:50:19.375Z,2.27
2023-05-05T08:51:19.422Z,1.78
2023-05-05T08:52:19.515Z,1.73
2023-05-05T08:53:19.602Z,2.27
2023-05-05T08:54:19.690Z,1.88
2023-05-05T08:55:19.783Z,1.69
2023-05-05T08:56:19.883Z,0.96
2023-05-05T08:57:19.987Z,1.03
2023-05-05T08:58:20.094Z,1.53
2023-05-05T08:59:20.205Z,1.19
2023-05-05T09:00:20.324Z,1.25
2023-05-05T09:01:20.436Z,1.49
2023-05-05T09:02:20.533Z,1.68
2023-05-05T09:03:20.782Z,1.58
2023-05-05T09:04:20.761Z,1.84
2023-05-05T09:05:20.865Z,2.97
2023-05-05T09:06:20.989Z,8.14
2023-05-05T09:07:21.067Z,28.11
2023-05-05T09:08:21.177Z,11.52
2023-05-05T09:09:21.298Z,5.85
2023-05-05T09:10:21.553Z,3.68
2023-05-05T09:11:21.558Z,2.93
2023-05-05T09:12:21.676Z,2.79
2023-05-05T09:13:21.809Z,2.43
2023-05-05T09:14:21.900Z,3.20
2023-05-05T09:15:22.026Z,4.31
2023-05-05T09:16:22.162Z,5.06
2023-05-05T09:17:22.263Z,7.01
2023-05-05T09:18:22.354Z,6.57
2023-05-05T09:19:22.543Z,6.39
2023-05-05T09:20:22.550Z,6.83
2023-05-05T09:21:22.673Z,5.79
2023-05-05T09:22:22.725Z,6.72
2023-05-05T09:23:22.828Z,9.90
2023-05-05T09:24:22.893Z,15.51
2023-05-05T09:25:22.982Z,18.75
2023-05-05T09:26:23.175Z,16.75
2023-05-05T09:27:23.737Z,6.98
2023-05-05T09:28:23.129Z,4.03
2023-05-05T09:29:23.001Z,4.43
2023-05-05T09:30:22.844Z,6.02
2023-05-05T09:31:22.857Z,5.41
2023-05-05T09:32:22.726Z,3.23
2023-05-05T09:33:22.507Z,3.90
2023-05-05T09:34:22.418Z,3.83
2023-05-05T09:35:22.333Z,18.38
2023-05-05T09:36:22.256Z,17.91
2023-05-05T09:37:22.153Z,6.79
2023-05-05T09:38:22.056Z,2.44
2023-05-05T09:39:21.952Z,1.44
2023-05-05T09:40:21.980Z,1.44
2023-05-05T09:41:21.711Z,1.36
2023-05-05T09:42:21.579Z,0.76
2023-05-05T09:43:21.485Z,1.87
2023-05-05T09:44:21.372Z,1.17
2023-05-05T09:45:21.269Z,2.56
2023-05-05T09:46:22.863Z,2.59
2023-05-05T09:47:29.627Z,3.01
2023-05-05T09:48:22.049Z,2.69
2023-05-05T09:49:20.737Z,2.83
2023-05-05T09:50:20.730Z,3.07
2023-05-05T09:51:20.531Z,2.29
2023-05-05T09:52:21.245Z,1.50
2023-05-05T09:53:20.195Z,0.77
2023-05-05T09:54:20.037Z,0.37
2023-05-05T09:55:19.893Z,0.56
2023-05-05T09:56:19.771Z,1.27
2023-05-05T09:57:19.618Z,1.95
2023-05-05T09:58:20.055Z,0.93
2023-05-05T09:59:19.414Z,0.67
2023-05-05T10:00:20.293Z,0.47
2023-05-05T10:01:19.389Z,0.52
2023-05-05T10:02:19.182Z,0.81
2023-05-05T10:03:19.099Z,1.06
2023-05-05T10:04:19.020Z,0.86
2023-05-05T10:05:19.914Z,1.07
2023-05-05T10:06:18.828Z,0.73
2023-05-05T10:07:18.795Z,0.67
2023-05-05T10:08:18.649Z,0.60
2023-05-05T10:09:18.528Z,0.70
2023-05-05T10:10:18.530Z,0.60
2023-05-05T10:11:18.316Z,0.44
2023-05-05T10:12:18.203Z,0.56
2023-05-05T10:13:18.773Z,0.71
2023-05-05T10:14:17.971Z,0.90
2023-05-05T10:15:17.842Z,1.32
2023-05-05T10:16:17.798Z,1.22
2023-05-05T10:17:17.617Z,1.46
2023-05-05T10:18:17.517Z,1.02
2023-05-05T10:19:17.385Z,0.90
2023-05-05T10:20:17.315Z,0.75
2023-05-05T10:21:17.209Z,0.65
2023-05-05T10:22:17.118Z,0.69
2023-05-05T10:23:17.067Z,0.68
2023-05-05T10:24:16.878Z,0.69
2023-05-05T10:25:16.765Z,0.61
2023-05-05T10:26:16.638Z,0.50
2023-05-05T10:27:16.567Z,0.49
2023-05-05T10:28:16.730Z,0.40
2023-05-05T10:29:16.829Z,0.38
2023-05-05T10:30:16.950Z,0.44
2023-05-05T10:31:25.714Z,0.34
2023-05-05T10:32:47.290Z,0.34
2023-05-05T10:33:30.373Z,0.34
2023-05-05T10:34:17.832Z,0.34
2023-05-05T10:35:16.513Z,0.34
2023-05-05T10:36:16.329Z,0.40
2023-05-05T10:37:16.177Z,0.49
2023-05-05T10:38:16.021Z,0.45
2023-05-05T10:39:15.904Z,0.34
2023-05-05T10:40:15.716Z,0.34
2023-05-05T10:41:15.522Z,0.34
2023-05-05T10:42:15.368Z,0.36
2023-05-05T10:43:15.213Z,0.63
2023-05-05T10:44:15.040Z,1.86
2023-05-05T10:45:14.910Z,2.31
2023-05-05T10:46:14.783Z,1.32
2023-05-05T10:47:14.643Z,4.47
2023-05-05T10:48:14.842Z,9.51
2023-05-05T10:49:14.843Z,5.47
2023-05-05T10:50:14.883Z,1.44
2023-05-05T10:51:23.938Z,0.50
2023-05-05T10:52:15.850Z,0.35
2023-05-05T10:53:14.676Z,0.34
2023-05-05T10:54:14.536Z,0.44
2023-05-05T10:55:14.481Z,0.54
2023-05-05T10:56:14.228Z,0.68
2023-05-05T10:57:14.064Z,0.59
2023-05-05T10:58:13.901Z,1.75
2023-05-05T10:59:14.308Z,1.78
2023-05-05T11:00:15.057Z,1.53
2023-05-05T11:01:13.410Z,1.86
2023-05-05T11:02:13.332Z,3.26
2023-05-05T11:03:13.113Z,7.53
2023-05-05T11:04:12.875Z,5.72
2023-05-05T11:05:12.680Z,9.27
2023-05-05T11:06:12.511Z,13.20
2023-05-05T11:07:14.971Z,4.09
2023-05-05T11:08:12.160Z,2.02
2023-05-05T11:09:11.997Z,3.41
2023-05-05T11:10:11.946Z,0.86
2023-05-05T11:11:11.704Z,0.56
2023-05-05T11:12:11.462Z,1.48
2023-05-05T11:13:11.291Z,1.71
2023-05-05T11:14:11.106Z,1.47
2023-05-05T11:15:10.942Z,1.38
2023-05-05T11:16:11.003Z,0.99
2023-05-05T11:17:11.037Z,0.87
2023-05-05T11:18:11.222Z,0.63
2023-05-05T11:19:11.287Z,1.24
2023-05-05T11:20:11.334Z,0.73
2023-05-05T11:21:11.489Z,0.38
2023-05-05T11:22:11.600Z,0.34
2023-05-05T11:23:12.597Z,0.34
2023-05-05T11:24:11.600Z,0.34
2023-05-05T11:25:11.431Z,0.34
2023-05-05T11:26:11.281Z,0.34
2023-05-05T11:27:11.357Z,0.60
2023-05-05T11:28:11.071Z,0.87
2023-05-05T11:29:10.900Z,0.68
2023-05-05T11:30:10.987Z,0.50
2023-05-05T11:31:10.567Z,0.50
2023-05-05T11:32:10.378Z,0.47
2023-05-05T11:33:10.214Z,0.50
2023-05-05T11:34:10.025Z,0.77
2023-05-05T11:35:09.846Z,1.10
2023-05-05T11:36:09.673Z,0.76
2023-05-05T11:37:09.585Z,0.62
2023-05-05T11:38:09.364Z,0.61
2023-05-05T11:39:09.201Z,0.86
2023-05-05T11:40:09.178Z,2.14
2023-05-05T11:41:09.139Z,1.59
2023-05-05T11:42:10.687Z,0.65
2023-05-05T11:43:08.789Z,0.53
2023-05-05T11:44:08.504Z,0.71
2023-05-05T11:45:08.386Z,1.07
2023-05-05T11:46:08.330Z,0.56
2023-05-05T11:47:08.124Z,0.47
2023-05-05T11:48:08.204Z,0.79
2023-05-05T11:49:07.842Z,0.57
2023-05-05T11:50:07.858Z,0.49
2023-05-05T11:51:07.535Z,0.91
2023-05-05T11:52:07.397Z,1.56
2023-05-05T11:53:07.259Z,1.30
2023-05-05T11:54:07.108Z,1.05
2023-05-05T11:55:06.981Z,0.93
2023-05-05T11:56:06.790Z,1.17
2023-05-05T11:57:06.639Z,2.26
2023-05-05T11:58:06.461Z,3.06
2023-05-05T11:59:06.405Z,10.16
2023-05-05T12:01:06.545Z,5.27
2023-05-05T12:02:06.502Z,10.51
2023-05-05T12:03:06.838Z,7.52
2023-05-05T12:04:06.829Z,6.56
2023-05-05T12:05:06.872Z,4.00
2023-05-05T12:06:06.955Z,3.99
2023-05-05T12:07:07.044Z,5.88
2023-05-05T12:08:07.138Z,8.97
2023-05-05T12:09:07.326Z,11.17
2023-05-05T12:10:07.603Z,9.69
2023-05-05T12:11:07.200Z,9.11
2023-05-05T12:12:07.052Z,3.97
2023-05-05T12:13:06.960Z,3.10
2023-05-05T12:14:06.859Z,2.14
2023-05-05T12:15:07.027Z,2.19
2023-05-05T12:16:07.080Z,2.29
2023-05-05T12:17:07.108Z,2.34
2023-05-05T12:18:07.225Z,2.44
2023-05-05T12:19:07.281Z,1.80
2023-05-05T12:20:07.596Z,1.31
2023-05-05T12:21:07.169Z,2.10
2023-05-05T12:22:07.004Z,3.93
2023-05-05T12:23:06.846Z,4.04
2023-05-05T12:24:06.673Z,4.15
2023-05-05T12:25:06.714Z,5.99
2023-05-05T12:26:06.746Z,6.19
2023-05-05T12:27:06.831Z,6.91
2023-05-05T12:28:06.998Z,4.77
2023-05-05T12:29:06.964Z,1.72
2023-05-05T12:30:07.207Z,1.34
2023-05-05T12:31:07.279Z,1.26
2023-05-05T12:32:07.293Z,1.71
2023-05-05T12:33:07.298Z,1.95
2023-05-05T12:34:07.360Z,2.05
2023-05-05T12:35:07.448Z,2.99
2023-05-05T12:36:07.523Z,2.42
2023-05-05T12:37:07.620Z,3.06
2023-05-05T12:38:07.648Z,2.34
2023-05-05T12:39:07.818Z,2.57
2023-05-05T12:40:08.059Z,3.43
2023-05-05T12:41:07.967Z,3.01
2023-05-05T12:42:08.023Z,3.94
2023-05-05T12:43:08.086Z,5.32
2023-05-05T12:44:08.187Z,3.96
2023-05-05T12:45:08.281Z,2.38
2023-05-05T12:46:08.415Z,2.11
2023-05-05T12:47:08.515Z,2.57
2023-05-05T12:48:08.557Z,3.39
2023-05-05T12:49:08.639Z,3.71
2023-05-05T12:50:08.875Z,5.00
2023-05-05T12:51:08.745Z,8.27
2023-05-05T12:52:08.837Z,5.92
2023-05-05T12:53:08.988Z,4.58